sensor_id;sensor_type;location;lat;lon;timestamp;temperature;humidity
57664;DHT22;43493;53.098;6.064;2023-07-09T00:02:17;23.70;99.90
57664;DHT22;43493;53.098;6.064;2023-07-09T00:04:44;23.70;99.90
57664;DHT22;43493;53.098;6.064;2023-07-09T00:07:22;23.60;99.90
57664;DHT22;43493;53.098;6.064;2023-07-09T00:09:50;23.70;99.90
57664;DHT22;43493;53.098;6.064;2023-07-09T00:12:17;23.60;99.90
57664;DHT22;43493;53.098;6.064;2023-07-09T00:14:43;23.60;99.90
57664;DHT22;43493;53.098;6.064;2023-07-09T00:17:32;23.50;99.90
57664;DHT22;43493;53.098;6.064;2023-07-09T00:19:59;23.50;99.90
57664;DHT22;43493;53.098;6.064;2023-07-09T00:22:25;23.50;99.90
57664;DHT22;43493;53.098;6.064;2023-07-09T00:24:52;23.40;99.90
57664;DHT22;43493;53.098;6.064;2023-07-09T00:27:24;23.40;99.90
57664;DHT22;43493;53.098;6.064;2023-07-09T00:29:51;23.40;99.90
57664;DHT22;43493;53.098;6.064;2023-07-09T00:32:20;23.30;99.90
57664;DHT22;43493;53.098;6.064;2023-07-09T00:34:47;23.30;99.90
57664;DHT22;43493;53.098;6.064;2023-07-09T00:37:18;23.30;99.90
57664;DHT22;43493;53.098;6.064;2023-07-09T00:39:45;23.30;99.90
57664;DHT22;43493;53.098;6.064;2023-07-09T00:42:21;23.30;99.90
57664;DHT22;43493;53.098;6.064;2023-07-09T00:44:53;23.20;99.90
57664;DHT22;43493;53.098;6.064;2023-07-09T00:47:31;23.20;99.90
57664;DHT22;43493;53.098;6.064;2023-07-09T00:50:49;23.10;99.90
57664;DHT22;43493;53.098;6.064;2023-07-09T00:52:55;23.10;99.90
57664;DHT22;43493;53.098;6.064;2023-07-09T00:55:29;23.10;99.90
57664;DHT22;43493;53.098;6.064;2023-07-09T00:58:01;23.00;99.90
57664;DHT22;43493;53.098;6.064;2023-07-09T01:00:36;23.00;99.90
57664;DHT22;43493;53.098;6.064;2023-07-09T01:03:18;22.90;99.90
57664;DHT22;43493;53.098;6.064;2023-07-09T01:05:47;22.80;99.90
57664;DHT22;43493;53.098;6.064;2023-07-09T01:08:18;22.80;99.90
57664;DHT22;43493;53.098;6.064;2023-07-09T01:10:45;22.70;99.90
57664;DHT22;43493;53.098;6.064;2023-07-09T01:13:11;22.70;99.90
57664;DHT22;43493;53.098;6.064;2023-07-09T01:15:36;22.70;99.90
57664;DHT22;43493;53.098;6.064;2023-07-09T01:18:06;22.70;99.90
57664;DHT22;43493;53.098;6.064;2023-07-09T01:20:32;22.60;99.90
57664;DHT22;43493;53.098;6.064;2023-07-09T01:22:58;22.50;99.90
57664;DHT22;43493;53.098;6.064;2023-07-09T01:25:27;22.50;99.90
57664;DHT22;43493;53.098;6.064;2023-07-09T01:27:54;22.50;99.90
57664;DHT22;43493;53.098;6.064;2023-07-09T01:30:33;22.50;99.90
57664;DHT22;43493;53.098;6.064;2023-07-09T01:33:00;22.50;99.90
57664;DHT22;43493;53.098;6.064;2023-07-09T01:35:29;22.40;99.90
57664;DHT22;43493;53.098;6.064;2023-07-09T01:37:55;22.40;99.90
57664;DHT22;43493;53.098;6.064;2023-07-09T01:40:24;22.40;99.90
57664;DHT22;43493;53.098;6.064;2023-07-09T01:42:51;22.30;99.90
57664;DHT22;43493;53.098;6.064;2023-07-09T01:45:17;22.30;99.90
57664;DHT22;43493;53.098;6.064;2023-07-09T01:47:43;22.30;99.90
57664;DHT22;43493;53.098;6.064;2023-07-09T01:50:10;22.30;99.90
57664;DHT22;43493;53.098;6.064;2023-07-09T01:52:37;22.30;99.90
57664;DHT22;43493;53.098;6.064;2023-07-09T01:55:04;22.30;99.90
57664;DHT22;43493;53.098;6.064;2023-07-09T01:57:30;22.20;99.90
57664;DHT22;43493;53.098;6.064;2023-07-09T02:00:01;22.20;99.90
57664;DHT22;43493;53.098;6.064;2023-07-09T02:02:29;22.10;99.90
57664;DHT22;43493;53.098;6.064;2023-07-09T02:04:56;22.10;99.90
57664;DHT22;43493;53.098;6.064;2023-07-09T02:07:23;22.10;99.90
57664;DHT22;43493;53.098;6.064;2023-07-09T02:09:49;22.00;99.90
57664;DHT22;43493;53.098;6.064;2023-07-09T02:12:16;22.00;99.90
57664;DHT22;43493;53.098;6.064;2023-07-09T02:14:43;22.00;99.90
57664;DHT22;43493;53.098;6.064;2023-07-09T02:17:10;22.00;99.90
57664;DHT22;43493;53.098;6.064;2023-07-09T02:19:36;22.00;99.90
57664;DHT22;43493;53.098;6.064;2023-07-09T02:22:02;21.90;99.90
57664;DHT22;43493;53.098;6.064;2023-07-09T02:24:28;21.90;99.90
57664;DHT22;43493;53.098;6.064;2023-07-09T02:26:55;21.80;99.90
57664;DHT22;43493;53.098;6.064;2023-07-09T02:29:21;21.80;99.90
57664;DHT22;43493;53.098;6.064;2023-07-09T02:31:50;21.80;99.90
57664;DHT22;43493;53.098;6.064;2023-07-09T02:34:17;21.80;99.90
57664;DHT22;43493;53.098;6.064;2023-07-09T02:36:43;21.80;99.90
57664;DHT22;43493;53.098;6.064;2023-07-09T02:39:13;21.70;99.90
57664;DHT22;43493;53.098;6.064;2023-07-09T02:41:39;21.70;99.90
57664;DHT22;43493;53.098;6.064;2023-07-09T02:44:06;21.70;99.90
57664;DHT22;43493;53.098;6.064;2023-07-09T02:46:32;21.70;99.90
57664;DHT22;43493;53.098;6.064;2023-07-09T02:48:58;21.70;99.90
57664;DHT22;43493;53.098;6.064;2023-07-09T02:51:24;21.60;99.90
57664;DHT22;43493;53.098;6.064;2023-07-09T02:53:56;21.70;99.90
57664;DHT22;43493;53.098;6.064;2023-07-09T02:56:22;21.60;99.90
57664;DHT22;43493;53.098;6.064;2023-07-09T02:58:49;21.60;99.90
57664;DHT22;43493;53.098;6.064;2023-07-09T03:01:15;21.60;99.90
57664;DHT22;43493;53.098;6.064;2023-07-09T03:03:40;21.50;99.90
57664;DHT22;43493;53.098;6.064;2023-07-09T03:06:06;21.40;99.90
57664;DHT22;43493;53.098;6.064;2023-07-09T03:08:32;21.40;99.90
57664;DHT22;43493;53.098;6.064;2023-07-09T03:10:58;21.40;99.90
57664;DHT22;43493;53.098;6.064;2023-07-09T03:13:24;21.40;99.90
57664;DHT22;43493;53.098;6.064;2023-07-09T03:15:59;21.30;99.90
57664;DHT22;43493;53.098;6.064;2023-07-09T03:18:24;21.30;99.90
57664;DHT22;43493;53.098;6.064;2023-07-09T03:20:50;21.30;99.90
57664;DHT22;43493;53.098;6.064;2023-07-09T03:23:16;21.30;99.90
57664;DHT22;43493;53.098;6.064;2023-07-09T03:25:43;21.30;99.90
57664;DHT22;43493;53.098;6.064;2023-07-09T03:28:11;21.30;99.90
57664;DHT22;43493;53.098;6.064;2023-07-09T03:30:41;21.20;99.90
57664;DHT22;43493;53.098;6.064;2023-07-09T03:33:07;21.30;99.90
57664;DHT22;43493;53.098;6.064;2023-07-09T03:35:33;21.20;99.90
57664;DHT22;43493;53.098;6.064;2023-07-09T03:38:00;21.20;99.90
57664;DHT22;43493;53.098;6.064;2023-07-09T03:40:26;21.20;99.90
57664;DHT22;43493;53.098;6.064;2023-07-09T03:42:51;21.20;99.90
57664;DHT22;43493;53.098;6.064;2023-07-09T03:45:17;21.20;99.90
57664;DHT22;43493;53.098;6.064;2023-07-09T03:47:43;21.10;99.90
57664;DHT22;43493;53.098;6.064;2023-07-09T03:50:09;21.20;99.90
57664;DHT22;43493;53.098;6.064;2023-07-09T03:52:35;21.20;99.90
57664;DHT22;43493;53.098;6.064;2023-07-09T03:55:01;21.20;99.90
57664;DHT22;43493;53.098;6.064;2023-07-09T03:57:30;21.20;99.90
57664;DHT22;43493;53.098;6.064;2023-07-09T03:59:56;21.20;99.90
57664;DHT22;43493;53.098;6.064;2023-07-09T04:02:22;21.20;99.90
57664;DHT22;43493;53.098;6.064;2023-07-09T04:04:48;21.20;99.90
57664;DHT22;43493;53.098;6.064;2023-07-09T04:07:14;21.20;99.90
57664;DHT22;43493;53.098;6.064;2023-07-09T04:09:40;21.30;99.90
57664;DHT22;43493;53.098;6.064;2023-07-09T04:12:07;21.30;99.90
57664;DHT22;43493;53.098;6.064;2023-07-09T04:14:33;21.30;99.90
57664;DHT22;43493;53.098;6.064;2023-07-09T04:16:59;21.40;99.90
57664;DHT22;43493;53.098;6.064;2023-07-09T04:19:25;21.40;99.90
57664;DHT22;43493;53.098;6.064;2023-07-09T04:21:50;21.50;99.90
57664;DHT22;43493;53.098;6.064;2023-07-09T04:24:17;21.40;99.90
57664;DHT22;43493;53.098;6.064;2023-07-09T04:26:43;21.50;99.90
57664;DHT22;43493;53.098;6.064;2023-07-09T04:29:10;21.50;99.90
57664;DHT22;43493;53.098;6.064;2023-07-09T04:31:36;21.50;99.90
57664;DHT22;43493;53.098;6.064;2023-07-09T04:34:03;21.60;99.90
57664;DHT22;43493;53.098;6.064;2023-07-09T04:36:29;21.60;99.90
57664;DHT22;43493;53.098;6.064;2023-07-09T04:38:55;21.70;99.90
57664;DHT22;43493;53.098;6.064;2023-07-09T04:41:21;21.70;99.90
57664;DHT22;43493;53.098;6.064;2023-07-09T04:43:46;21.70;99.90
57664;DHT22;43493;53.098;6.064;2023-07-09T04:46:12;21.70;99.90
57664;DHT22;43493;53.098;6.064;2023-07-09T04:48:38;21.80;99.90
57664;DHT22;43493;53.098;6.064;2023-07-09T04:51:04;21.80;99.90
57664;DHT22;43493;53.098;6.064;2023-07-09T04:53:30;21.80;99.90
57664;DHT22;43493;53.098;6.064;2023-07-09T04:55:56;21.90;99.90
57664;DHT22;43493;53.098;6.064;2023-07-09T04:58:22;21.90;99.90
57664;DHT22;43493;53.098;6.064;2023-07-09T05:00:48;22.00;99.90
57664;DHT22;43493;53.098;6.064;2023-07-09T05:03:16;22.10;99.90
57664;DHT22;43493;53.098;6.064;2023-07-09T05:05:45;22.20;99.90
57664;DHT22;43493;53.098;6.064;2023-07-09T05:08:12;22.20;99.90
57664;DHT22;43493;53.098;6.064;2023-07-09T05:10:45;22.30;99.90
57664;DHT22;43493;53.098;6.064;2023-07-09T05:13:12;22.40;99.90
57664;DHT22;43493;53.098;6.064;2023-07-09T05:15:43;22.40;99.90
57664;DHT22;43493;53.098;6.064;2023-07-09T05:18:10;22.50;99.90
57664;DHT22;43493;53.098;6.064;2023-07-09T05:20:36;22.50;99.90
57664;DHT22;43493;53.098;6.064;2023-07-09T05:23:02;22.60;99.90
57664;DHT22;43493;53.098;6.064;2023-07-09T05:25:28;22.70;99.90
57664;DHT22;43493;53.098;6.064;2023-07-09T05:27:54;22.70;99.90
57664;DHT22;43493;53.098;6.064;2023-07-09T05:30:20;22.80;99.90
57664;DHT22;43493;53.098;6.064;2023-07-09T05:32:46;22.90;99.90
57664;DHT22;43493;53.098;6.064;2023-07-09T05:35:13;23.00;99.90
57664;DHT22;43493;53.098;6.064;2023-07-09T05:37:39;23.00;99.90
57664;DHT22;43493;53.098;6.064;2023-07-09T05:40:06;23.00;99.90
57664;DHT22;43493;53.098;6.064;2023-07-09T05:42:32;23.00;99.90
57664;DHT22;43493;53.098;6.064;2023-07-09T05:44:58;23.10;99.90
57664;DHT22;43493;53.098;6.064;2023-07-09T05:47:24;23.00;99.90
57664;DHT22;43493;53.098;6.064;2023-07-09T05:49:50;23.10;99.90
57664;DHT22;43493;53.098;6.064;2023-07-09T05:52:17;23.10;99.90
57664;DHT22;43493;53.098;6.064;2023-07-09T05:54:43;23.20;99.90
57664;DHT22;43493;53.098;6.064;2023-07-09T05:57:10;23.40;99.90
57664;DHT22;43493;53.098;6.064;2023-07-09T05:59:36;23.70;99.90
57664;DHT22;43493;53.098;6.064;2023-07-09T06:02:02;24.00;99.90
57664;DHT22;43493;53.098;6.064;2023-07-09T06:04:29;24.30;99.90
57664;DHT22;43493;53.098;6.064;2023-07-09T06:06:56;24.80;99.90
57664;DHT22;43493;53.098;6.064;2023-07-09T06:09:22;25.70;99.90
57664;DHT22;43493;53.098;6.064;2023-07-09T06:11:48;26.50;99.90
57664;DHT22;43493;53.098;6.064;2023-07-09T06:14:14;27.10;99.90
57664;DHT22;43493;53.098;6.064;2023-07-09T06:16:42;27.80;99.90
57664;DHT22;43493;53.098;6.064;2023-07-09T06:19:09;28.60;97.70
57664;DHT22;43493;53.098;6.064;2023-07-09T06:21:34;29.10;94.70
57664;DHT22;43493;53.098;6.064;2023-07-09T06:24:00;29.20;91.90
57664;DHT22;43493;53.098;6.064;2023-07-09T06:26:26;29.40;90.70
57664;DHT22;43493;53.098;6.064;2023-07-09T06:28:51;29.40;88.40
57664;DHT22;43493;53.098;6.064;2023-07-09T06:31:17;29.60;84.70
57664;DHT22;43493;53.098;6.064;2023-07-09T06:33:47;29.90;81.80
57664;DHT22;43493;53.098;6.064;2023-07-09T06:36:13;30.10;78.20
57664;DHT22;43493;53.098;6.064;2023-07-09T06:38:38;30.20;74.80
57664;DHT22;43493;53.098;6.064;2023-07-09T06:41:04;30.00;73.30
57664;DHT22;43493;53.098;6.064;2023-07-09T06:43:30;30.10;73.70
57664;DHT22;43493;53.098;6.064;2023-07-09T06:46:00;30.50;73.00
57664;DHT22;43493;53.098;6.064;2023-07-09T06:48:28;31.00;67.90
57664;DHT22;43493;53.098;6.064;2023-07-09T06:50:55;31.60;67.00
57664;DHT22;43493;53.098;6.064;2023-07-09T06:53:22;32.20;64.80
57664;DHT22;43493;53.098;6.064;2023-07-09T06:55:48;32.50;62.00
57664;DHT22;43493;53.098;6.064;2023-07-09T06:58:16;32.50;61.20
57664;DHT22;43493;53.098;6.064;2023-07-09T07:00:42;32.20;59.50
57664;DHT22;43493;53.098;6.064;2023-07-09T07:03:09;31.80;60.10
57664;DHT22;43493;53.098;6.064;2023-07-09T07:05:35;31.50;60.80
57664;DHT22;43493;53.098;6.064;2023-07-09T07:08:02;31.30;62.00
57664;DHT22;43493;53.098;6.064;2023-07-09T07:10:29;31.00;62.80
57664;DHT22;43493;53.098;6.064;2023-07-09T07:12:55;30.70;63.20
57664;DHT22;43493;53.098;6.064;2023-07-09T07:15:21;30.40;64.90
57664;DHT22;43493;53.098;6.064;2023-07-09T07:17:48;30.30;67.20
57664;DHT22;43493;53.098;6.064;2023-07-09T07:20:15;30.60;68.10
57664;DHT22;43493;53.098;6.064;2023-07-09T07:22:41;31.20;67.30
57664;DHT22;43493;53.098;6.064;2023-07-09T07:25:08;31.90;65.80
57664;DHT22;43493;53.098;6.064;2023-07-09T07:27:35;32.50;63.00
57664;DHT22;43493;53.098;6.064;2023-07-09T07:30:02;32.60;61.00
57664;DHT22;43493;53.098;6.064;2023-07-09T07:32:28;32.70;59.60
57664;DHT22;43493;53.098;6.064;2023-07-09T07:34:53;32.90;59.00
57664;DHT22;43493;53.098;6.064;2023-07-09T07:37:20;33.10;58.40
57664;DHT22;43493;53.098;6.064;2023-07-09T07:39:47;33.50;57.50
57664;DHT22;43493;53.098;6.064;2023-07-09T07:42:12;33.70;56.70
57664;DHT22;43493;53.098;6.064;2023-07-09T07:44:38;33.70;56.10
57664;DHT22;43493;53.098;6.064;2023-07-09T07:47:05;33.70;55.80
57664;DHT22;43493;53.098;6.064;2023-07-09T07:49:31;33.60;56.50
57664;DHT22;43493;53.098;6.064;2023-07-09T07:51:56;33.70;56.70
57664;DHT22;43493;53.098;6.064;2023-07-09T07:54:22;33.80;56.40
57664;DHT22;43493;53.098;6.064;2023-07-09T07:56:48;33.80;56.30
57664;DHT22;43493;53.098;6.064;2023-07-09T07:59:14;33.70;56.00
57664;DHT22;43493;53.098;6.064;2023-07-09T08:01:40;33.50;56.20
57664;DHT22;43493;53.098;6.064;2023-07-09T08:04:06;33.60;56.40
57664;DHT22;43493;53.098;6.064;2023-07-09T08:06:32;33.70;56.80
57664;DHT22;43493;53.098;6.064;2023-07-09T08:08:58;33.80;56.80
57664;DHT22;43493;53.098;6.064;2023-07-09T08:11:24;34.00;56.70
57664;DHT22;43493;53.098;6.064;2023-07-09T08:13:50;34.20;56.30
57664;DHT22;43493;53.098;6.064;2023-07-09T08:16:16;34.50;55.80
57664;DHT22;43493;53.098;6.064;2023-07-09T08:18:42;34.70;55.90
57664;DHT22;43493;53.098;6.064;2023-07-09T08:21:08;35.00;55.30
57664;DHT22;43493;53.098;6.064;2023-07-09T08:23:35;35.10;54.30
57664;DHT22;43493;53.098;6.064;2023-07-09T08:26:02;35.20;53.90
57664;DHT22;43493;53.098;6.064;2023-07-09T08:28:29;35.30;53.80
57664;DHT22;43493;53.098;6.064;2023-07-09T08:30:55;35.30;54.30
57664;DHT22;43493;53.098;6.064;2023-07-09T08:33:21;35.20;53.90
57664;DHT22;43493;53.098;6.064;2023-07-09T08:35:51;35.30;54.10
57664;DHT22;43493;53.098;6.064;2023-07-09T08:38:17;35.30;53.50
57664;DHT22;43493;53.098;6.064;2023-07-09T08:46:53;35.30;54.80
57664;DHT22;43493;53.098;6.064;2023-07-09T08:49:30;35.30;54.60
57664;DHT22;43493;53.098;6.064;2023-07-09T08:51:59;35.30;55.20
57664;DHT22;43493;53.098;6.064;2023-07-09T08:54:31;35.30;55.40
57664;DHT22;43493;53.098;6.064;2023-07-09T08:57:00;35.00;54.90
57664;DHT22;43493;53.098;6.064;2023-07-09T08:59:27;34.50;55.10
57664;DHT22;43493;53.098;6.064;2023-07-09T09:01:56;33.80;55.30
57664;DHT22;43493;53.098;6.064;2023-07-09T09:04:30;33.40;56.30
57664;DHT22;43493;53.098;6.064;2023-07-09T09:07:19;33.10;57.20
57664;DHT22;43493;53.098;6.064;2023-07-09T09:09:56;32.80;58.90
57664;DHT22;43493;53.098;6.064;2023-07-09T09:12:38;32.70;58.80
57664;DHT22;43493;53.098;6.064;2023-07-09T09:15:20;32.60;59.70
57664;DHT22;43493;53.098;6.064;2023-07-09T09:17:51;32.50;60.10
57664;DHT22;43493;53.098;6.064;2023-07-09T09:20:20;32.20;60.50
57664;DHT22;43493;53.098;6.064;2023-07-09T09:23:12;32.10;61.00
57664;DHT22;43493;53.098;6.064;2023-07-09T09:25:41;32.20;60.60
57664;DHT22;43493;53.098;6.064;2023-07-09T09:28:10;32.20;60.40
57664;DHT22;43493;53.098;6.064;2023-07-09T09:30:35;32.20;60.60
57664;DHT22;43493;53.098;6.064;2023-07-09T09:33:06;32.10;60.20
57664;DHT22;43493;53.098;6.064;2023-07-09T09:35:38;32.10;60.70
57664;DHT22;43493;53.098;6.064;2023-07-09T09:38:11;32.00;59.90
57664;DHT22;43493;53.098;6.064;2023-07-09T09:40:38;31.70;59.20
57664;DHT22;43493;53.098;6.064;2023-07-09T09:43:12;31.60;59.70
57664;DHT22;43493;53.098;6.064;2023-07-09T09:45:40;31.40;60.60
57664;DHT22;43493;53.098;6.064;2023-07-09T09:48:18;31.30;61.20
57664;DHT22;43493;53.098;6.064;2023-07-09T09:50:47;31.20;61.60
57664;DHT22;43493;53.098;6.064;2023-07-09T09:53:22;31.00;61.30
57664;DHT22;43493;53.098;6.064;2023-07-09T09:55:49;31.00;61.70
57664;DHT22;43493;53.098;6.064;2023-07-09T09:58:17;30.90;62.20
57664;DHT22;43493;53.098;6.064;2023-07-09T10:00:49;30.80;63.20
57664;DHT22;43493;53.098;6.064;2023-07-09T10:03:15;30.70;61.60
57664;DHT22;43493;53.098;6.064;2023-07-09T10:05:55;30.40;61.40
57664;DHT22;43493;53.098;6.064;2023-07-09T10:14:00;30.30;60.80
57664;DHT22;43493;53.098;6.064;2023-07-09T10:16:36;30.30;59.10
57664;DHT22;43493;53.098;6.064;2023-07-09T10:21:37;29.80;59.20
57664;DHT22;43493;53.098;6.064;2023-07-09T10:24:30;29.80;59.80
57664;DHT22;43493;53.098;6.064;2023-07-09T10:32:19;30.00;63.30
57664;DHT22;43493;53.098;6.064;2023-07-09T10:35:42;29.90;65.30
57664;DHT22;43493;53.098;6.064;2023-07-09T10:37:48;30.00;68.70
57664;DHT22;43493;53.098;6.064;2023-07-09T10:40:21;30.10;70.40
57664;DHT22;43493;53.098;6.064;2023-07-09T10:42:50;30.00;71.60
57664;DHT22;43493;53.098;6.064;2023-07-09T10:45:41;30.10;72.40
57664;DHT22;43493;53.098;6.064;2023-07-09T10:48:16;30.10;72.10
57664;DHT22;43493;53.098;6.064;2023-07-09T10:50:51;30.10;72.30
57664;DHT22;43493;53.098;6.064;2023-07-09T10:53:32;30.10;70.70
57664;DHT22;43493;53.098;6.064;2023-07-09T10:56:10;30.10;68.40
57664;DHT22;43493;53.098;6.064;2023-07-09T11:01:58;30.10;65.80
57664;DHT22;43493;53.098;6.064;2023-07-09T11:04:40;30.10;67.00
57664;DHT22;43493;53.098;6.064;2023-07-09T11:07:13;30.10;68.30
57664;DHT22;43493;53.098;6.064;2023-07-09T11:09:43;30.10;68.80
57664;DHT22;43493;53.098;6.064;2023-07-09T11:12:16;30.10;68.80
57664;DHT22;43493;53.098;6.064;2023-07-09T11:14:50;30.10;69.70
57664;DHT22;43493;53.098;6.064;2023-07-09T11:17:21;30.00;70.80
57664;DHT22;43493;53.098;6.064;2023-07-09T11:19:56;30.00;71.50
57664;DHT22;43493;53.098;6.064;2023-07-09T11:22:35;29.90;69.20
57664;DHT22;43493;53.098;6.064;2023-07-09T11:27:49;29.90;67.50
57664;DHT22;43493;53.098;6.064;2023-07-09T11:30:24;29.90;63.20
57664;DHT22;43493;53.098;6.064;2023-07-09T11:32:57;29.90;62.70
57664;DHT22;43493;53.098;6.064;2023-07-09T11:35:25;29.90;63.30
57664;DHT22;43493;53.098;6.064;2023-07-09T11:37:52;29.90;63.30
57664;DHT22;43493;53.098;6.064;2023-07-09T11:40:22;29.80;63.40
57664;DHT22;43493;53.098;6.064;2023-07-09T11:42:50;29.90;62.40
57664;DHT22;43493;53.098;6.064;2023-07-09T11:45:21;29.90;62.60
57664;DHT22;43493;53.098;6.064;2023-07-09T11:47:54;29.90;61.90
57664;DHT22;43493;53.098;6.064;2023-07-09T11:53:04;29.70;62.80
57664;DHT22;43493;53.098;6.064;2023-07-09T11:55:39;29.60;62.30
57664;DHT22;43493;53.098;6.064;2023-07-09T11:58:09;29.60;60.90
57664;DHT22;43493;53.098;6.064;2023-07-09T12:03:30;29.60;62.10
57664;DHT22;43493;53.098;6.064;2023-07-09T12:06:07;29.70;62.10
57664;DHT22;43493;53.098;6.064;2023-07-09T12:08:40;29.70;59.80
57664;DHT22;43493;53.098;6.064;2023-07-09T12:11:29;29.70;61.10
57664;DHT22;43493;53.098;6.064;2023-07-09T12:14:20;29.60;59.80
57664;DHT22;43493;53.098;6.064;2023-07-09T12:16:48;29.70;61.20
57664;DHT22;43493;53.098;6.064;2023-07-09T12:19:18;29.70;61.30
57664;DHT22;43493;53.098;6.064;2023-07-09T12:21:45;29.70;61.40
57664;DHT22;43493;53.098;6.064;2023-07-09T12:26:43;29.70;59.70
57664;DHT22;43493;53.098;6.064;2023-07-09T12:29:12;29.70;59.50
57664;DHT22;43493;53.098;6.064;2023-07-09T12:31:39;29.70;59.60
57664;DHT22;43493;53.098;6.064;2023-07-09T12:34:05;29.70;57.70
57664;DHT22;43493;53.098;6.064;2023-07-09T12:36:31;29.60;58.30
57664;DHT22;43493;53.098;6.064;2023-07-09T12:39:02;29.70;58.20
57664;DHT22;43493;53.098;6.064;2023-07-09T12:41:37;29.70;57.90
57664;DHT22;43493;53.098;6.064;2023-07-09T12:44:04;29.70;58.70
57664;DHT22;43493;53.098;6.064;2023-07-09T12:46:30;29.70;58.20
57664;DHT22;43493;53.098;6.064;2023-07-09T12:48:56;29.70;57.60
57664;DHT22;43493;53.098;6.064;2023-07-09T12:51:24;29.70;57.30
57664;DHT22;43493;53.098;6.064;2023-07-09T12:54:11;29.70;57.90
57664;DHT22;43493;53.098;6.064;2023-07-09T12:56:38;29.80;57.40
57664;DHT22;43493;53.098;6.064;2023-07-09T12:59:28;29.80;56.90
57664;DHT22;43493;53.098;6.064;2023-07-09T13:02:17;29.70;55.60
57664;DHT22;43493;53.098;6.064;2023-07-09T13:04:43;29.80;56.90
57664;DHT22;43493;53.098;6.064;2023-07-09T13:07:39;29.80;56.50
57664;DHT22;43493;53.098;6.064;2023-07-09T13:10:25;29.90;54.10
57664;DHT22;43493;53.098;6.064;2023-07-09T13:12:54;29.90;55.20
57664;DHT22;43493;53.098;6.064;2023-07-09T13:18:03;30.00;54.80
57664;DHT22;43493;53.098;6.064;2023-07-09T13:20:31;29.90;54.00
57664;DHT22;43493;53.098;6.064;2023-07-09T13:22:58;29.90;55.00
57664;DHT22;43493;53.098;6.064;2023-07-09T13:25:24;29.80;55.60
57664;DHT22;43493;53.098;6.064;2023-07-09T13:27:50;29.70;55.80
57664;DHT22;43493;53.098;6.064;2023-07-09T13:30:16;29.70;56.40
57664;DHT22;43493;53.098;6.064;2023-07-09T13:32:45;29.70;57.20
57664;DHT22;43493;53.098;6.064;2023-07-09T13:35:16;29.60;57.10
57664;DHT22;43493;53.098;6.064;2023-07-09T13:37:44;29.60;57.50
57664;DHT22;43493;53.098;6.064;2023-07-09T13:40:12;29.50;58.40
57664;DHT22;43493;53.098;6.064;2023-07-09T13:42:39;29.50;58.80
57664;DHT22;43493;53.098;6.064;2023-07-09T13:45:42;29.50;59.20
57664;DHT22;43493;53.098;6.064;2023-07-09T13:48:01;29.50;59.00
57664;DHT22;43493;53.098;6.064;2023-07-09T13:50:27;29.40;59.00
57664;DHT22;43493;53.098;6.064;2023-07-09T13:52:52;29.40;58.30
57664;DHT22;43493;53.098;6.064;2023-07-09T13:55:22;29.40;58.50
57664;DHT22;43493;53.098;6.064;2023-07-09T13:57:49;29.40;57.50
57664;DHT22;43493;53.098;6.064;2023-07-09T14:00:16;29.30;56.90
57664;DHT22;43493;53.098;6.064;2023-07-09T14:02:43;29.20;57.00
57664;DHT22;43493;53.098;6.064;2023-07-09T14:05:11;29.00;57.30
57664;DHT22;43493;53.098;6.064;2023-07-09T14:07:39;28.80;57.20
57664;DHT22;43493;53.098;6.064;2023-07-09T14:10:14;28.70;58.20
57664;DHT22;43493;53.098;6.064;2023-07-09T14:12:45;28.70;58.70
57664;DHT22;43493;53.098;6.064;2023-07-09T14:15:17;28.60;59.80
57664;DHT22;43493;53.098;6.064;2023-07-09T14:17:43;28.70;61.20
57664;DHT22;43493;53.098;6.064;2023-07-09T14:20:13;28.60;60.70
57664;DHT22;43493;53.098;6.064;2023-07-09T14:22:40;28.50;60.50
57664;DHT22;43493;53.098;6.064;2023-07-09T14:25:15;28.40;57.10
57664;DHT22;43493;53.098;6.064;2023-07-09T14:27:41;28.30;58.00
57664;DHT22;43493;53.098;6.064;2023-07-09T14:30:08;28.30;57.90
57664;DHT22;43493;53.098;6.064;2023-07-09T14:32:38;28.20;58.50
57664;DHT22;43493;53.098;6.064;2023-07-09T14:35:18;28.10;61.80
57664;DHT22;43493;53.098;6.064;2023-07-09T14:37:46;28.10;64.90
57664;DHT22;43493;53.098;6.064;2023-07-09T14:40:12;27.90;65.60
57664;DHT22;43493;53.098;6.064;2023-07-09T14:42:39;27.60;64.40
57664;DHT22;43493;53.098;6.064;2023-07-09T14:45:22;27.40;64.50
57664;DHT22;43493;53.098;6.064;2023-07-09T14:47:50;27.10;73.20
57664;DHT22;43493;53.098;6.064;2023-07-09T14:50:16;26.80;82.40
57664;DHT22;43493;53.098;6.064;2023-07-09T14:52:43;26.50;90.00
57664;DHT22;43493;53.098;6.064;2023-07-09T14:55:22;26.20;94.40
57664;DHT22;43493;53.098;6.064;2023-07-09T14:57:50;25.80;97.70
57664;DHT22;43493;53.098;6.064;2023-07-09T15:00:21;25.60;99.90
57664;DHT22;43493;53.098;6.064;2023-07-09T15:02:52;25.30;99.90
57664;DHT22;43493;53.098;6.064;2023-07-09T15:05:23;24.90;99.90
57664;DHT22;43493;53.098;6.064;2023-07-09T15:07:49;24.70;99.90
57664;DHT22;43493;53.098;6.064;2023-07-09T15:10:23;24.30;99.90
57664;DHT22;43493;53.098;6.064;2023-07-09T15:12:50;24.10;99.90
57664;DHT22;43493;53.098;6.064;2023-07-09T15:15:25;23.90;99.90
57664;DHT22;43493;53.098;6.064;2023-07-09T15:17:52;23.70;99.90
57664;DHT22;43493;53.098;6.064;2023-07-09T15:20:23;23.60;99.90
57664;DHT22;43493;53.098;6.064;2023-07-09T15:22:50;23.40;99.90
57664;DHT22;43493;53.098;6.064;2023-07-09T15:25:25;23.40;99.90
57664;DHT22;43493;53.098;6.064;2023-07-09T15:27:51;23.30;99.90
57664;DHT22;43493;53.098;6.064;2023-07-09T15:30:19;23.10;99.90
57664;DHT22;43493;53.098;6.064;2023-07-09T15:32:46;23.00;99.90
57664;DHT22;43493;53.098;6.064;2023-07-09T15:35:13;22.90;99.90
57664;DHT22;43493;53.098;6.064;2023-07-09T15:37:40;22.90;99.90
57664;DHT22;43493;53.098;6.064;2023-07-09T15:40:23;23.00;99.90
57664;DHT22;43493;53.098;6.064;2023-07-09T15:42:52;23.00;99.90
57664;DHT22;43493;53.098;6.064;2023-07-09T15:45:19;22.80;99.90
57664;DHT22;43493;53.098;6.064;2023-07-09T15:47:47;22.70;99.90
57664;DHT22;43493;53.098;6.064;2023-07-09T15:50:22;22.60;99.90
57664;DHT22;43493;53.098;6.064;2023-07-09T15:52:49;22.50;99.90
57664;DHT22;43493;53.098;6.064;2023-07-09T15:55:20;22.60;99.90
57664;DHT22;43493;53.098;6.064;2023-07-09T15:57:47;22.40;99.90
57664;DHT22;43493;53.098;6.064;2023-07-09T16:00:19;22.30;99.90
57664;DHT22;43493;53.098;6.064;2023-07-09T16:02:46;22.30;99.90
57664;DHT22;43493;53.098;6.064;2023-07-09T16:05:27;22.30;99.90
57664;DHT22;43493;53.098;6.064;2023-07-09T16:07:55;22.10;99.90
57664;DHT22;43493;53.098;6.064;2023-07-09T16:10:23;22.10;99.90
57664;DHT22;43493;53.098;6.064;2023-07-09T16:12:50;22.00;99.90
57664;DHT22;43493;53.098;6.064;2023-07-09T16:15:18;21.90;99.90
57664;DHT22;43493;53.098;6.064;2023-07-09T16:17:45;21.90;99.90
57664;DHT22;43493;53.098;6.064;2023-07-09T16:20:12;21.70;99.90